Share

Agana Heights, GU

Maite (KGUMAITE2) Elev 140 ft | 13.48 °N, 144.76 °E | Change Station

Current weather conditions updated 2 seconds ago

Scattered Clouds
Scattered Clouds
81.8 °F
Feels Like 90 °F
N
8.0
Wind Variable Wind from ESE
Gusts 11.0 mph
Sunrise 6:04 AM
Sunset 6:34 PM
Moon Waning Gibbous

Today is forecast to be Cooler than yesterday. Showers and thunderstorms.

Pressure 29.82 in
Visibility 10.0 miles
Clouds Few 1500 ft
Scattered Clouds 2100 ft
Heat Index 90 °F
Dew Point 78 °F
Humidity 88%
Rainfall 0.00 in
Snow Depth Not available.
UV 0.0 out of 16
Pollen Not available.
Air Quality Not available.
Flu Activity Regional
METAR PGUM 201554Z 12007KT 10SM FEW015 SCT021 28/25 A2984 RMK AO2 SLP096 T02780250

More Conditions Fewer Conditions

Pressure 29.82 in
Visibility 10.0 miles
Clouds Few 1500 ft
Scattered Clouds 2100 ft
Heat Index 90 °F
Dew Point 78 °F
Humidity 88%
Rainfall 0.00 in
Snow Depth Not available.
UV 0.0 out of 16
Pollen Not available.
Air Quality Not available.
Flu Activity Regional
METAR PGUM 201554Z 12007KT 10SM FEW015 SCT021 28/25 A2984 RMK AO2 SLP096 T02780250

More Conditions Fewer Conditions

10-Day Weather Forecast

Almanac

Astronomy

Apr. 21, 2014 Rise Set
Actual Time 6:04 AM ChST 6:34 PM ChST
Civil Twilight 5:43 AM ChST 6:56 PM ChST
Nautical Twilight 5:17 AM ChST 7:22 PM ChST
Astronomical Twilight 4:52 AM ChST 7:47 PM ChST
Moon No Moon Rise 11:04 AM ChST (4/21)
Length of Visible Light 13h 13m
Length of Day
12h 29m
Tomorrow will be 0m 41s longer.
Waning Gibbous, 68% of the Moon is Illuminated
Apr 20
Waning Gibbous
Apr 22
Last Quarter
Apr 29
New
May 6
First Quarter
May 14
Full

Community

  • Columbine
    Columbine
  • Easter Sunrise
    Easter Sunrise
  • Easter Eve - The Promise - Lake Palestine, TX
    Easter Eve - The Promise - Lake Palestine, TX
  • Happy Easter
    Happy Easter
  • EARLY FOGGY MORNING
    EARLY FOGGY MORNING

WunderPhotos

Upload Photos

1,703,274 photos uploaded!

WunderBlogs® & News

Nearby

Snow Depth

Station Depth Elevation
No new snow has been reported.

Coastal Water Temperatures

Place Temperature
No Stations Reporting

Earthquake Activity

City Distance Mag. Time & Date
No recent earthquake activity has been reported nearby.
Minimum magnitude displayed is 2.5.

Nearby Weather Stations

Station Location Temp. Heat Index Dew Point Humidity Wind Precip. Elev Updated Type
Maite, Maite, GU 81.8 °F 90 °F 78 °F 88% ESE  at  8.0 mph 0.00 in / hr 140 ft 2:30 AM ChST Rapid Fire
Ordot Dump, Guam 80.1 °F 86 °F 78 °F 93% ESE  at  2.9 mph 0.00 in / hr 282 ft 2:30 AM ChST Rapid Fire
Mangilao, Mangilao, GU 80.7 °F 85 °F 73 °F 78% ENE  at  4.0 mph 0.00 in / hr 361 ft 2:30 AM ChST Rapid Fire
Jeffs Pirates Cove, Guam, Ipan Talofofo, GU 82.5 °F 92 °F 79 °F 88% East  at  12.0 mph 0.00 in / hr 27 ft 2:30 AM ChST Rapid Fire

Show More Stations Show Fewer Stations

What do you think?

We're not finished. Please let us know what you like, what you don't like, and what you are still missing.